Time;durP1;ratioP1;P1;durP2;ratioP2;P2;SDS_P1;SDS_P2;PMS_P1;PMS_P2;Temp;Humidity;BMP_temperature;BMP_pressure;BME280_temperature;BME280_humidity;BME280_pressure;Samples;Min_cycle;Max_cycle;Signal;HPM_P1;HPM_P2
2022/10/29 00:02:24;;;;;;;32.03;12.38;;;16.90;86.90;;;;;;5091861;28;20413;-75
2022/10/29 00:04:50;;;;;;;27.88;13.82;;;16.80;87.00;;;;;;5074831;28;20421;-75
2022/10/29 00:07:15;;;;;;;28.93;13.53;;;16.80;87.60;;;;;;5092574;28;20386;-76
2022/10/29 00:09:41;;;;;;;25.55;12.25;;;16.70;88.10;;;;;;5092992;28;20397;-76
2022/10/29 00:12:07;;;;;;;31.60;13.20;;;16.70;88.60;;;;;;5095408;28;20908;-76
2022/10/29 00:14:33;;;;;;;33.97;13.23;;;16.70;89.30;;;;;;5097506;28;20407;-77
2022/10/29 00:16:58;;;;;;;46.93;23.23;;;16.70;89.40;;;;;;5094680;28;20385;-75
2022/10/29 00:19:24;;;;;;;76.50;45.50;;;16.70;89.70;;;;;;5091863;28;20429;-76
2022/10/29 00:21:50;;;;;;;48.07;31.33;;;16.80;90.10;;;;;;5091237;28;20547;-76
2022/10/29 00:24:16;;;;;;;26.33;12.87;;;16.80;89.00;;;;;;5091480;28;20505;-76
2022/10/29 00:26:42;;;;;;;48.28;22.23;;;16.80;87.90;;;;;;5091503;28;20404;-76
2022/10/29 00:29:07;;;;;;;43.60;19.40;;;16.80;88.00;;;;;;5091618;28;20405;-76
2022/10/29 00:31:33;;;;;;;42.42;26.70;;;16.90;87.00;;;;;;5095442;28;20378;-75
2022/10/29 00:33:58;;;;;;;31.27;13.80;;;16.90;87.60;;;;;;5093305;28;20413;-76
2022/10/29 00:36:27;;;;;;;33.83;14.63;;;17.20;84.30;;;;;;5073240;28;20527;-76
2022/10/29 00:38:53;;;;;;;31.83;14.20;;;17.20;83.80;;;;;;5091195;28;20378;-77
2022/10/29 00:41:21;;;;;;;33.50;16.15;;;17.10;84.10;;;;;;5091222;28;20873;-75
2022/10/29 00:43:49;;;;;;;38.38;22.73;;;17.00;85.20;;;;;;5091164;28;20866;-76
2022/10/29 00:46:22;;;;;;;30.20;14.18;;;16.90;86.30;;;;;;5094925;28;20411;-76
2022/10/29 00:48:51;;;;;;;31.95;14.65;;;16.90;86.80;;;;;;5094887;28;20393;-75
2022/10/29 00:51:18;;;;;;;30.40;12.75;;;16.90;87.70;;;;;;5094414;28;20489;-75
2022/10/29 00:53:59;;;;;;;23.83;11.45;;;16.90;86.20;;;;;;5094966;28;20753;-75
2022/10/29 00:56:26;;;;;;;26.88;12.20;;;16.90;86.60;;;;;;5095160;28;20461;-76
2022/10/29 00:58:51;;;;;;;34.60;13.45;;;16.80;86.50;;;;;;5094752;28;20371;-76
2022/10/29 01:01:17;;;;;;;27.77;12.90;;;16.80;88.20;;;;;;5094488;28;20581;-76
2022/10/29 01:03:42;;;;;;;30.77;12.70;;;16.70;88.20;;;;;;5094565;28;20410;-74
2022/10/29 01:06:08;;;;;;;25.40;12.80;;;16.70;89.30;;;;;;5094614;28;20382;-76
2022/10/29 01:08:34;;;;;;;29.87;13.10;;;16.50;90.70;;;;;;5094780;28;20464;-76
2022/10/29 01:11:33;;;;;;;31.90;12.73;;;16.60;91.40;;;;;;5094167;28;20420;-76
2022/10/29 01:14:04;;;;;;;24.60;11.90;;;16.60;91.40;;;;;;5094455;28;20854;-75
2022/10/29 01:16:51;;;;;;;37.25;15.25;;;16.40;91.70;;;;;;5094695;28;20390;-76
2022/10/29 01:19:58;;;;;;;32.45;14.13;;;16.30;94.20;;;;;;5094795;28;20417;-77
2022/10/29 01:22:39;;;;;;;38.17;14.63;;;16.20;97.20;;;;;;5073873;28;20437;-77
2022/10/29 01:25:22;;;;;;;36.60;13.70;;;16.00;99.90;;;;;;5095997;28;20382;-77
2022/10/29 01:28:29;;;;;;;29.48;13.80;;;16.00;99.90;;;;;;5095958;28;20398;-77
2022/10/29 01:31:18;;;;;;;27.20;13.60;;;16.00;99.90;;;;;;5072690;28;20465;-75
2022/10/29 01:33:55;;;;;;;27.15;13.50;;;16.00;99.90;;;;;;5094068;28;20469;-75
2022/10/29 01:36:26;;;;;;;29.98;13.63;;;15.90;99.90;;;;;;5094123;28;20397;-75
2022/10/29 01:39:04;;;;;;;24.33;12.25;;;15.90;99.90;;;;;;5094199;28;20386;-75
2022/10/29 01:41:42;;;;;;;24.50;12.85;;;15.80;99.90;;;;;;5094669;28;20459;-77
2022/10/29 01:44:33;;;;;;;30.67;13.43;;;15.90;99.90;;;;;;5094993;28;20386;-76
2022/10/29 01:47:02;;;;;;;28.98;14.40;;;15.90;99.90;;;;;;5094342;28;20374;-74
2022/10/29 01:49:33;;;;;;;33.50;14.40;;;15.90;99.90;;;;;;5094586;28;20413;-76
2022/10/29 01:52:01;;;;;;;30.65;14.68;;;15.80;99.90;;;;;;5094213;28;20398;-75
2022/10/29 01:54:27;;;;;;;28.58;12.75;;;15.70;99.90;;;;;;5094195;28;20385;-75
2022/10/29 01:56:57;;;;;;;34.57;14.07;;;15.60;99.90;;;;;;5093479;28;20460;-75
2022/10/29 01:59:28;;;;;;;26.80;12.80;;;15.60;99.90;;;;;;5094326;28;20476;-76
2022/10/29 02:02:22;;;;;;;27.00;12.65;;;15.60;99.90;;;;;;5093727;28;20373;-77
2022/10/29 02:05:04;;;;;;;36.05;14.82;;;15.60;99.90;;;;;;5093969;28;20481;-76
2022/10/29 02:07:50;;;;;;;27.85;13.18;;;15.60;99.90;;;;;;5093841;28;20402;-75
2022/10/29 02:10:28;;;;;;;31.38;14.68;;;15.60;99.90;;;;;;5094535;28;20398;-76
2022/10/29 02:12:55;;;;;;;29.08;14.10;;;15.70;99.90;;;;;;5093588;28;20472;-75
2022/10/29 02:15:27;;;;;;;27.38;13.40;;;15.60;99.90;;;;;;5094085;28;20389;-74
2022/10/29 02:17:58;;;;;;;23.03;12.63;;;15.50;99.90;;;;;;5094363;28;20418;-76
2022/10/29 02:20:24;;;;;;;38.13;13.82;;;15.50;99.90;;;;;;5093907;28;20377;-77
2022/10/29 02:22:50;;;;;;;27.23;13.75;;;15.50;99.90;;;;;;5093088;28;20388;-75
2022/10/29 02:25:15;;;;;;;30.57;13.10;;;15.40;99.90;;;;;;5093509;28;20385;-77
2022/10/29 02:27:41;;;;;;;22.00;12.67;;;15.30;99.90;;;;;;5093350;28;20436;-76
2022/10/29 02:30:07;;;;;;;31.07;13.70;;;15.20;99.90;;;;;;5093203;28;20432;-76
2022/10/29 02:32:33;;;;;;;36.40;14.20;;;15.40;99.90;;;;;;5092937;28;20385;-76
2022/10/29 02:35:00;;;;;;;35.03;15.63;;;15.20;99.90;;;;;;5093596;28;20374;-76
2022/10/29 02:37:25;;;;;;;30.75;14.45;;;15.20;99.90;;;;;;5093353;28;20858;-76
2022/10/29 02:39:51;;;;;;;30.07;14.60;;;15.30;99.90;;;;;;5075100;28;20397;-76
2022/10/29 02:42:17;;;;;;;30.37;13.10;;;15.20;99.90;;;;;;5093053;28;20447;-75
2022/10/29 02:44:42;;;;;;;33.35;14.30;;;15.10;99.90;;;;;;5093801;28;20465;-77
2022/10/29 02:47:08;;;;;;;32.30;14.00;;;15.00;99.90;;;;;;5093029;28;20893;-76
2022/10/29 02:49:33;;;;;;;27.97;15.07;;;15.00;99.90;;;;;;5092960;28;20813;-76
2022/10/29 02:51:59;;;;;;;28.17;13.90;;;14.90;99.90;;;;;;5104169;22;20479;-71
2022/10/29 02:54:24;;;;;;;29.10;14.38;;;14.90;99.90;;;;;;5074495;28;20940;-72
2022/10/29 02:56:50;;;;;;;33.13;14.70;;;14.90;99.90;;;;;;5092565;28;20378;-73
2022/10/29 02:59:15;;;;;;;34.13;15.53;;;14.80;99.90;;;;;;5092539;28;20393;-73
2022/10/29 03:01:41;;;;;;;27.60;14.18;;;14.80;99.90;;;;;;5091881;28;20858;-72
2022/10/29 03:04:06;;;;;;;32.07;15.70;;;14.80;99.90;;;;;;5093521;28;20882;-73
2022/10/29 03:06:32;;;;;;;34.40;14.17;;;14.80;99.90;;;;;;5093495;28;20447;-73
2022/10/29 03:08:57;;;;;;;31.13;13.30;;;14.90;99.90;;;;;;5092496;28;20431;-72
2022/10/29 03:11:23;;;;;;;30.70;14.47;;;14.90;99.90;;;;;;5091918;28;20421;-73
2022/10/29 03:13:48;;;;;;;32.17;15.40;;;14.90;99.90;;;;;;5091978;28;20565;-73
2022/10/29 03:16:14;;;;;;;28.83;14.05;;;14.90;99.90;;;;;;5092056;28;20435;-73
2022/10/29 03:18:39;;;;;;;31.83;14.90;;;15.00;99.90;;;;;;5092488;28;20430;-73
2022/10/29 03:21:05;;;;;;;40.20;14.33;;;15.00;99.90;;;;;;5074081;28;20519;-72
2022/10/29 03:23:31;;;;;;;34.80;13.90;;;15.00;99.90;;;;;;5092134;28;20724;-72
2022/10/29 03:25:56;;;;;;;29.95;14.30;;;15.00;99.90;;;;;;5092581;28;20805;-72
2022/10/29 03:28:23;;;;;;;23.70;13.67;;;15.10;99.90;;;;;;5090720;28;20402;-71
2022/10/29 03:30:49;;;;;;;30.67;14.10;;;15.20;99.90;;;;;;5095289;28;20479;-73
2022/10/29 03:33:14;;;;;;;31.90;13.63;;;15.10;99.90;;;;;;5076498;28;20394;-72
2022/10/29 03:35:40;;;;;;;30.65;13.35;;;15.10;99.90;;;;;;5098293;28;20453;-71
2022/10/29 03:38:05;;;;;;;31.40;13.30;;;15.20;99.90;;;;;;5113047;28;20390;-74
2022/10/29 03:40:31;;;;;;;33.23;13.67;;;15.20;99.90;;;;;;5080666;28;20759;-72
2022/10/29 03:42:57;;;;;;;30.30;13.50;;;15.20;99.90;;;;;;5091724;28;20473;-73
2022/10/29 03:45:22;;;;;;;35.78;13.20;;;15.30;99.90;;;;;;5091824;28;20774;-73
2022/10/29 03:47:48;;;;;;;37.58;14.50;;;15.30;99.90;;;;;;5092708;28;20389;-74
2022/10/29 03:50:13;;;;;;;34.20;13.40;;;15.30;99.90;;;;;;5092216;28;20475;-74
2022/10/29 03:52:39;;;;;;;26.58;12.70;;;15.40;99.90;;;;;;5091166;28;20394;-74
2022/10/29 03:55:05;;;;;;;35.33;14.02;;;15.40;99.90;;;;;;5091523;28;20402;-73
2022/10/29 03:57:31;;;;;;;28.38;12.52;;;15.40;99.90;;;;;;5091768;28;20381;-74
2022/10/29 03:59:57;;;;;;;28.40;13.00;;;15.40;99.90;;;;;;5073811;28;20866;-73
2022/10/29 04:02:23;;;;;;;31.30;12.50;;;15.40;99.90;;;;;;5091648;28;20464;-73
2022/10/29 04:04:48;;;;;;;25.83;12.40;;;15.30;99.90;;;;;;5073421;28;20407;-73
2022/10/29 04:07:14;;;;;;;36.50;12.93;;;15.30;99.90;;;;;;5092037;28;20386;-72
2022/10/29 04:09:40;;;;;;;32.42;13.10;;;15.30;99.90;;;;;;5092125;28;20484;-72
2022/10/29 04:12:06;;;;;;;28.33;12.32;;;15.30;99.90;;;;;;5094839;28;20382;-72
2022/10/29 04:14:31;;;;;;;35.70;13.73;;;15.30;99.90;;;;;;5074181;28;20382;-72
2022/10/29 04:16:57;;;;;;;26.98;12.30;;;15.30;99.90;;;;;;5093126;28;20381;-73
2022/10/29 04:19:23;;;;;;;34.53;13.00;;;15.30;99.90;;;;;;5096824;28;20411;-72
2022/10/29 04:21:48;;;;;;;31.53;12.33;;;15.30;99.90;;;;;;5096548;28;20378;-72
2022/10/29 04:24:14;;;;;;;24.53;11.80;;;15.40;99.90;;;;;;5095510;28;20382;-73
2022/10/29 04:26:41;;;;;;;27.55;12.15;;;15.40;99.90;;;;;;5077689;28;20385;-74
2022/10/29 04:29:07;;;;;;;26.55;12.90;;;15.40;99.90;;;;;;5077529;28;20949;-72
2022/10/29 04:31:32;;;;;;;35.13;13.23;;;15.40;99.90;;;;;;5077500;28;20416;-74
2022/10/29 04:33:58;;;;;;;28.40;11.73;;;15.50;99.90;;;;;;5095721;28;20382;-73
2022/10/29 04:36:24;;;;;;;28.17;11.95;;;15.50;99.90;;;;;;5077475;28;20854;-72
2022/10/29 04:38:49;;;;;;;32.07;12.40;;;15.50;99.90;;;;;;5096116;28;20451;-72
2022/10/29 04:41:15;;;;;;;29.70;11.50;;;15.50;99.90;;;;;;5096948;28;20377;-74
2022/10/29 04:43:41;;;;;;;25.57;11.43;;;15.50;99.90;;;;;;5099632;28;20378;-72
2022/10/29 04:46:08;;;;;;;30.67;11.07;;;15.50;99.90;;;;;;5096679;28;20378;-74
2022/10/29 04:48:34;;;;;;;25.90;10.75;;;15.60;99.90;;;;;;5096196;28;20410;-74
2022/10/29 04:50:59;;;;;;;28.63;12.00;;;15.50;99.90;;;;;;5099031;28;20397;-71
2022/10/29 04:53:25;;;;;;;28.47;11.83;;;15.50;99.90;;;;;;5103182;28;20402;-73
2022/10/29 04:55:51;;;;;;;34.97;12.70;;;15.50;99.90;;;;;;5103311;28;20396;-72
2022/10/29 04:58:18;;;;;;;29.27;11.23;;;15.60;99.90;;;;;;5103381;28;20389;-72
2022/10/29 05:00:44;;;;;;;29.40;11.48;;;15.70;99.90;;;;;;5104815;28;20402;-72
2022/10/29 05:03:11;;;;;;;29.20;11.00;;;15.70;99.90;;;;;;5108199;28;20390;-71
2022/10/29 05:05:38;;;;;;;29.02;11.48;;;15.70;99.90;;;;;;5092792;28;20386;-73
2022/10/29 05:08:05;;;;;;;26.90;10.48;;;15.70;99.90;;;;;;5107006;28;20462;-73
2022/10/29 05:10:36;;;;;;;21.17;10.40;;;15.70;99.90;;;;;;5113204;28;20393;-71
2022/10/29 05:13:10;;;;;;;30.00;10.77;;;15.60;99.90;;;;;;5092342;28;20382;-72
2022/10/29 05:15:36;;;;;;;25.90;10.23;;;15.70;99.90;;;;;;5102675;28;20916;-74
2022/10/29 05:18:02;;;;;;;27.38;11.23;;;15.60;99.90;;;;;;5082275;28;20382;-73
2022/10/29 05:20:28;;;;;;;26.30;11.07;;;15.60;99.90;;;;;;5098403;28;20750;-73
2022/10/29 05:23:05;;;;;;;22.70;11.63;;;15.60;99.90;;;;;;5094130;28;20400;-73
2022/10/29 05:25:33;;;;;;;26.58;12.02;;;15.50;99.90;;;;;;5094163;28;20788;-71
2022/10/29 05:28:04;;;;;;;30.98;11.50;;;15.50;99.90;;;;;;5094344;28;20838;-73
2022/10/29 05:30:30;;;;;;;34.60;12.40;;;15.40;99.90;;;;;;5093432;28;20437;-72
2022/10/29 05:32:55;;;;;;;36.00;11.88;;;15.40;99.90;;;;;;5093899;28;20402;-72
2022/10/29 05:35:21;;;;;;;23.85;10.65;;;15.40;99.90;;;;;;5093836;28;20388;-72
2022/10/29 05:37:51;;;;;;;27.63;11.85;;;15.50;99.90;;;;;;5094337;28;20378;-71
2022/10/29 05:40:17;;;;;;;29.70;11.27;;;15.40;99.90;;;;;;5093981;28;20933;-72
2022/10/29 05:42:42;;;;;;;25.17;11.60;;;15.50;99.90;;;;;;5093968;28;20515;-73
2022/10/29 05:45:08;;;;;;;27.37;11.10;;;15.40;99.90;;;;;;5093787;28;20386;-72
2022/10/29 05:47:34;;;;;;;22.33;10.63;;;15.40;99.90;;;;;;5093676;28;20393;-72
2022/10/29 05:49:59;;;;;;;24.50;11.10;;;15.40;99.90;;;;;;5094006;28;20406;-72
2022/10/29 05:52:25;;;;;;;30.73;11.63;;;15.50;99.90;;;;;;5076245;28;20557;-71
2022/10/29 05:54:50;;;;;;;33.13;11.87;;;15.50;99.90;;;;;;5093701;28;20453;-73
2022/10/29 05:57:16;;;;;;;27.13;10.43;;;15.50;99.90;;;;;;5075359;28;20376;-72
2022/10/29 05:59:42;;;;;;;26.52;10.70;;;15.50;99.90;;;;;;5093589;28;20394;-74
2022/10/29 06:02:09;;;;;;;21.90;10.60;;;15.60;99.90;;;;;;5093791;28;20393;-75
2022/10/29 06:04:34;;;;;;;26.30;10.73;;;15.60;99.90;;;;;;5093628;28;20386;-73
2022/10/29 06:07:00;;;;;;;29.40;11.27;;;15.60;99.90;;;;;;5075825;28;20382;-71
2022/10/29 06:09:26;;;;;;;32.10;11.17;;;15.60;99.90;;;;;;5093941;28;20405;-73
2022/10/29 06:11:53;;;;;;;27.27;10.50;;;15.60;99.90;;;;;;5093850;28;20800;-72
2022/10/29 06:14:18;;;;;;;23.40;10.77;;;15.60;99.90;;;;;;5094249;28;20432;-73
2022/10/29 06:16:44;;;;;;;27.27;11.07;;;15.70;99.90;;;;;;5103729;28;20374;-72
2022/10/29 06:19:09;;;;;;;22.92;11.00;;;15.70;99.90;;;;;;5103240;28;20386;-73
2022/10/29 06:21:35;;;;;;;24.17;11.43;;;15.70;99.70;;;;;;5084893;28;20371;-74
2022/10/29 06:24:01;;;;;;;26.33;10.53;;;15.80;97.30;;;;;;5095065;28;20382;-74
2022/10/29 06:26:26;;;;;;;29.98;10.93;;;15.80;96.40;;;;;;5094329;28;20388;-75
2022/10/29 06:28:52;;;;;;;30.88;11.57;;;15.90;96.30;;;;;;5095042;28;20409;-73
2022/10/29 06:31:17;;;;;;;29.50;11.57;;;15.90;95.70;;;;;;5103801;28;20397;-74
2022/10/29 06:33:43;;;;;;;23.97;10.33;;;16.00;94.10;;;;;;5101962;28;20370;-73
2022/10/29 06:36:08;;;;;;;25.80;11.07;;;16.00;93.30;;;;;;5094933;28;20858;-72
2022/10/29 06:38:34;;;;;;;28.00;10.87;;;16.00;92.70;;;;;;5093602;28;20746;-72
2022/10/29 06:40:59;;;;;;;19.93;10.27;;;16.00;91.50;;;;;;5092398;28;20379;-72
2022/10/29 06:43:25;;;;;;;25.98;10.85;;;16.10;92.20;;;;;;5091268;28;20382;-71
2022/10/29 06:45:51;;;;;;;22.13;10.80;;;16.20;89.00;;;;;;5092503;28;20413;-71
2022/10/29 06:48:16;;;;;;;31.50;11.30;;;16.20;89.20;;;;;;5092301;28;20457;-70
2022/10/29 06:50:42;;;;;;;25.42;9.85;;;16.20;89.00;;;;;;5092403;28;20507;-70
2022/10/29 06:53:11;;;;;;;27.77;11.43;;;16.20;89.00;;;;;;5073966;28;20831;-71
2022/10/29 06:55:37;;;;;;;24.05;10.32;;;16.20;88.80;;;;;;5092220;28;20378;-70
2022/10/29 06:58:10;;;;;;;26.25;10.80;;;16.20;88.20;;;;;;5092672;28;20392;-71
2022/10/29 07:00:36;;;;;;;22.40;10.40;;;16.20;87.50;;;;;;5092267;28;20417;-72
2022/10/29 07:03:03;;;;;;;34.97;11.30;;;16.30;86.50;;;;;;5091855;28;20432;-73
2022/10/29 07:05:30;;;;;;;25.85;10.80;;;16.30;86.60;;;;;;5092430;28;20730;-72
2022/10/29 07:07:59;;;;;;;24.92;9.75;;;16.40;85.50;;;;;;5074121;28;20393;-72
2022/10/29 07:10:27;;;;;;;26.67;10.70;;;16.40;85.10;;;;;;5092331;28;20394;-73
2022/10/29 07:12:53;;;;;;;26.35;10.77;;;16.50;84.00;;;;;;5092441;28;20378;-72
2022/10/29 07:15:18;;;;;;;31.23;10.38;;;16.50;81.80;;;;;;5094267;28;20370;-72
2022/10/29 07:18:14;;;;;;;26.30;9.70;;;16.60;80.90;;;;;;5094195;28;20382;-73
2022/10/29 07:20:42;;;;;;;32.43;9.87;;;16.70;79.20;;;;;;5073375;28;20504;-72
2022/10/29 07:23:09;;;;;;;25.45;9.50;;;16.70;78.50;;;;;;5095492;28;20382;-72
2022/10/29 07:25:36;;;;;;;25.77;9.57;;;16.80;76.70;;;;;;5094661;28;20389;-73
2022/10/29 07:28:19;;;;;;;32.05;10.05;;;16.80;76.20;;;;;;5094679;28;20465;-72
2022/10/29 07:30:49;;;;;;;30.77;9.88;;;16.80;76.60;;;;;;5094587;28;20451;-72
2022/10/29 07:33:16;;;;;;;29.10;9.57;;;16.90;76.40;;;;;;5095687;28;20474;-72
2022/10/29 07:35:42;;;;;;;22.20;9.88;;;16.90;76.40;;;;;;5095653;28;20373;-73
2022/10/29 07:38:10;;;;;;;30.48;10.10;;;17.00;74.80;;;;;;5077179;28;20378;-72
2022/10/29 07:40:36;;;;;;;27.70;9.98;;;17.10;74.20;;;;;;5075717;28;20863;-72
2022/10/29 07:43:01;;;;;;;23.67;9.45;;;17.20;72.90;;;;;;5100282;28;20472;-71
2022/10/29 07:45:27;;;;;;;27.40;9.80;;;17.40;69.60;;;;;;5101689;28;20405;-72
2022/10/29 07:48:06;;;;;;;23.25;8.93;;;17.50;69.10;;;;;;5098085;28;20937;-72
2022/10/29 07:50:32;;;;;;;24.50;10.20;;;17.50;68.70;;;;;;5093001;28;20398;-71
2022/10/29 07:53:02;;;;;;;24.63;9.80;;;17.60;68.30;;;;;;5092210;28;20401;-73
2022/10/29 07:55:28;;;;;;;26.83;9.80;;;17.70;67.30;;;;;;5092981;28;20390;-71
2022/10/29 07:58:00;;;;;;;19.67;8.93;;;17.80;65.40;;;;;;5074066;28;20389;-73
2022/10/29 08:00:31;;;;;;;23.75;9.45;;;17.90;64.40;;;;;;5092219;28;20477;-71
2022/10/29 08:02:57;;;;;;;24.30;9.30;;;18.00;63.30;;;;;;5092383;28;20378;-72
2022/10/29 08:05:24;;;;;;;27.00;9.23;;;18.10;60.90;;;;;;5075329;28;20382;-72
2022/10/29 08:07:51;;;;;;;22.40;9.10;;;18.00;61.10;;;;;;5092856;28;20385;-72
2022/10/29 08:10:19;;;;;;;25.52;8.90;;;17.90;63.10;;;;;;5095102;28;20412;-73
2022/10/29 08:12:52;;;;;;;24.15;9.32;;;17.80;63.20;;;;;;5093264;28;20742;-73
2022/10/29 08:15:18;;;;;;;29.65;9.57;;;17.70;64.50;;;;;;5091235;28;20377;-73
2022/10/29 08:17:45;;;;;;;32.03;9.70;;;17.80;65.40;;;;;;5091367;28;20427;-73
2022/10/29 08:20:11;;;;;;;24.95;9.32;;;17.90;64.10;;;;;;5091282;28;20457;-71
2022/10/29 08:22:36;;;;;;;23.70;9.25;;;17.90;63.70;;;;;;5091044;28;20823;-72
2022/10/29 08:25:02;;;;;;;24.27;9.88;;;18.10;62.20;;;;;;5092303;28;20413;-72
2022/10/29 08:27:28;;;;;;;18.00;8.70;;;18.20;61.40;;;;;;5073707;28;20386;-72
2022/10/29 08:29:53;;;;;;;24.40;8.93;;;18.30;60.00;;;;;;5091934;28;20554;-72
2022/10/29 08:32:19;;;;;;;25.53;9.20;;;18.30;59.40;;;;;;5092400;28;20389;-72
2022/10/29 08:34:44;;;;;;;24.00;9.10;;;18.30;59.00;;;;;;5092302;28;20373;-72
2022/10/29 08:37:10;;;;;;;28.00;9.10;;;18.30;59.40;;;;;;5091756;28;20735;-72
2022/10/29 08:39:36;;;;;;;27.17;8.83;;;18.40;58.90;;;;;;5091161;28;20378;-72
2022/10/29 08:42:20;;;;;;;36.78;9.00;;;18.40;58.50;;;;;;5072928;28;20511;-72
2022/10/29 08:45:24;;;;;;;22.23;9.63;;;18.30;59.10;;;;;;5090754;28;20877;-72
2022/10/29 08:48:08;;;;;;;25.10;9.00;;;18.40;58.40;;;;;;5072500;28;20397;-71
2022/10/29 08:50:40;;;;;;;24.58;9.35;;;18.50;58.10;;;;;;5090491;28;20447;-72
2022/10/29 08:53:15;;;;;;;20.17;8.38;;;18.60;57.40;;;;;;5091796;28;20896;-71
2022/10/29 08:55:41;;;;;;;26.35;8.25;;;18.80;56.00;;;;;;5091148;28;20377;-73
2022/10/29 08:58:34;;;;;;;28.60;8.13;;;18.90;54.60;;;;;;5090995;28;20389;-73
2022/10/29 09:01:00;;;;;;;19.88;9.40;;;19.00;53.40;;;;;;5090940;28;20385;-73
2022/10/29 09:03:28;;;;;;;20.63;8.55;;;19.20;51.30;;;;;;5091158;28;20795;-73
2022/10/29 09:05:59;;;;;;;29.58;8.70;;;19.60;49.30;;;;;;5074499;28;20396;-73
2022/10/29 09:08:47;;;;;;;26.17;8.85;;;19.80;47.10;;;;;;5095043;28;20407;-72
2022/10/29 09:11:25;;;;;;;21.80;7.53;;;19.90;45.80;;;;;;5094226;28;20406;-72
2022/10/29 09:14:30;;;;;;;24.25;9.02;;;20.00;45.00;;;;;;5094410;28;20378;-72
2022/10/29 09:17:23;;;;;;;30.48;8.52;;;20.00;44.30;;;;;;5094445;28;20738;-73
2022/10/29 09:20:24;;;;;;;21.73;7.88;;;20.10;44.50;;;;;;5094018;28;20410;-73
2022/10/29 09:23:14;;;;;;;24.50;7.40;;;20.20;44.20;;;;;;5076592;28;20390;-72
2022/10/29 09:25:52;;;;;;;30.58;8.50;;;20.20;43.50;;;;;;5075859;28;20386;-72
2022/10/29 09:28:32;;;;;;;26.25;8.23;;;20.20;43.50;;;;;;5094055;28;20410;-72
2022/10/29 09:31:29;;;;;;;24.83;7.70;;;20.30;43.50;;;;;;5093860;28;20406;-72
2022/10/29 09:34:01;;;;;;;20.65;7.60;;;20.40;43.00;;;;;;5094828;28;20370;-73
2022/10/29 09:36:29;;;;;;;22.35;8.05;;;20.50;42.40;;;;;;5094385;28;20383;-72
2022/10/29 09:39:01;;;;;;;21.23;7.47;;;20.60;42.10;;;;;;5075835;28;20598;-72
2022/10/29 09:41:31;;;;;;;23.35;8.15;;;20.70;42.00;;;;;;5093270;28;20824;-72
2022/10/29 09:44:02;;;;;;;23.33;7.80;;;20.70;40.10;;;;;;5093474;28;20386;-71
2022/10/29 09:46:46;;;;;;;29.33;8.23;;;20.70;40.40;;;;;;5093445;28;20378;-71
2022/10/29 09:49:36;;;;;;;30.75;7.60;;;20.80;40.40;;;;;;5093641;28;20758;-72
2022/10/29 09:52:15;;;;;;;26.60;7.75;;;20.90;39.20;;;;;;5092862;28;20386;-71
2022/10/29 09:54:40;;;;;;;18.30;7.15;;;21.00;39.30;;;;;;5074944;28;20477;-71
2022/10/29 09:57:17;;;;;;;23.90;8.00;;;21.00;38.60;;;;;;5093265;28;20460;-72
2022/10/29 09:59:53;;;;;;;22.77;8.40;;;21.00;38.70;;;;;;5074901;28;20397;-71
2022/10/29 10:02:37;;;;;;;19.75;7.53;;;21.00;38.30;;;;;;5093026;28;20389;-72
2022/10/29 10:05:11;;;;;;;21.95;8.10;;;20.90;38.70;;;;;;5083710;28;20393;-72
2022/10/29 10:07:36;;;;;;;21.80;7.93;;;20.90;38.90;;;;;;5092566;28;20379;-71
2022/10/29 10:10:05;;;;;;;24.60;7.80;;;20.80;39.30;;;;;;5092007;28;20413;-72
2022/10/29 10:12:36;;;;;;;22.33;8.25;;;20.70;40.20;;;;;;5088046;28;20386;-72
2022/10/29 10:15:07;;;;;;;28.38;8.25;;;20.70;40.40;;;;;;5093938;28;20411;-75
2022/10/29 10:17:58;;;;;;;30.55;8.25;;;20.60;40.80;;;;;;5093754;28;20378;-70
2022/10/29 10:20:34;;;;;;;27.20;7.63;;;20.50;40.90;;;;;;5092719;28;20841;-72
2022/10/29 10:23:00;;;;;;;27.38;8.07;;;20.50;41.00;;;;;;5093146;28;20463;-72
2022/10/29 10:25:35;;;;;;;28.88;7.93;;;20.60;40.30;;;;;;5093480;28;20405;-74
2022/10/29 10:28:18;;;;;;;20.67;7.28;;;20.80;39.90;;;;;;5093635;28;20879;-73
2022/10/29 10:30:45;;;;;;;26.17;7.20;;;20.90;39.00;;;;;;5093747;28;20402;-72
2022/10/29 10:33:32;;;;;;;27.02;7.90;;;20.90;38.40;;;;;;5093341;28;20889;-71
2022/10/29 10:36:07;;;;;;;24.27;7.70;;;20.90;39.40;;;;;;5092211;28;20385;-72
2022/10/29 10:38:50;;;;;;;24.48;8.23;;;20.90;38.40;;;;;;5074123;28;20382;-70
2022/10/29 10:41:24;;;;;;;23.73;8.05;;;21.00;38.60;;;;;;5091686;28;20390;-73
2022/10/29 10:43:50;;;;;;;23.33;7.82;;;20.90;38.80;;;;;;5074187;28;20477;-72
2022/10/29 10:46:24;;;;;;;29.20;8.10;;;20.90;39.00;;;;;;5092595;28;20886;-70
2022/10/29 10:49:15;;;;;;;21.58;8.23;;;21.00;38.50;;;;;;5074250;28;20391;-74
2022/10/29 10:51:53;;;;;;;29.23;8.32;;;21.20;38.50;;;;;;5091627;28;20433;-72
2022/10/29 10:54:33;;;;;;;27.23;7.45;;;21.30;38.30;;;;;;5094981;28;20389;-73
2022/10/29 10:57:02;;;;;;;20.98;7.90;;;21.50;37.30;;;;;;5096189;28;20378;-73
2022/10/29 10:59:58;;;;;;;27.77;7.70;;;21.60;36.60;;;;;;5094162;28;20380;-73
2022/10/29 11:02:39;;;;;;;21.10;7.30;;;21.80;35.30;;;;;;5091332;28;20394;-73
2022/10/29 11:05:33;;;;;;;34.97;9.57;;;21.90;34.10;;;;;;5092149;28;20409;-73
2022/10/29 11:08:09;;;;;;;24.10;7.45;;;21.80;34.20;;;;;;5092291;28;20382;-74
2022/10/29 11:10:54;;;;;;;28.40;7.93;;;21.60;34.70;;;;;;5090917;28;20398;-71
2022/10/29 11:13:23;;;;;;;27.90;7.90;;;21.50;35.30;;;;;;5091785;28;20386;-71
2022/10/29 11:16:03;;;;;;;26.92;7.40;;;21.40;35.60;;;;;;5090944;28;20432;-72
2022/10/29 11:18:37;;;;;;;19.33;6.88;;;21.40;36.00;;;;;;5092163;28;20390;-71
2022/10/29 11:21:20;;;;;;;23.38;7.32;;;21.40;35.80;;;;;;5091486;28;20872;-72
2022/10/29 11:23:55;;;;;;;17.52;7.20;;;21.40;36.50;;;;;;5094009;28;20811;-75
2022/10/29 11:29:52;;;;;;;20.77;7.13;;;21.40;36.30;;;;;;5100692;28;20463;-74
2022/10/29 11:32:55;;;;;;;24.00;7.20;;;21.60;35.80;;;;;;5095079;28;20374;-74
2022/10/29 11:35:43;;;;;;;23.93;7.80;;;21.70;35.30;;;;;;5101835;28;20374;-74
2022/10/29 11:38:12;;;;;;;23.52;7.68;;;21.70;35.90;;;;;;5095252;28;20432;-74
2022/10/29 11:40:53;;;;;;;18.80;7.35;;;21.70;35.50;;;;;;5074015;28;20476;-74
2022/10/29 11:43:20;;;;;;;21.38;8.30;;;21.70;35.20;;;;;;5091119;28;20382;-73
2022/10/29 11:46:21;;;;;;;23.38;7.70;;;21.80;35.20;;;;;;5091445;28;20870;-71
2022/10/29 11:48:52;;;;;;;21.58;7.30;;;21.70;34.60;;;;;;5072989;28;20378;-71
2022/10/29 11:51:27;;;;;;;24.30;8.05;;;21.70;34.50;;;;;;5090868;28;20440;-72
2022/10/29 11:53:58;;;;;;;24.05;8.07;;;21.70;34.50;;;;;;5092163;28;20879;-73
2022/10/29 11:56:41;;;;;;;22.67;7.37;;;21.80;33.90;;;;;;5092207;28;20485;-72
2022/10/29 11:59:38;;;;;;;22.55;6.90;;;21.80;33.50;;;;;;5091968;28;20862;-73
2022/10/29 12:02:16;;;;;;;24.87;6.90;;;21.90;33.40;;;;;;5091470;28;20382;-73
2022/10/29 12:05:03;;;;;;;20.42;6.90;;;21.90;34.40;;;;;;5091971;28;20385;-73
2022/10/29 12:07:35;;;;;;;25.80;7.10;;;22.00;33.50;;;;;;5092115;28;20427;-72
2022/10/29 12:10:39;;;;;;;22.48;7.07;;;22.10;33.20;;;;;;5091344;28;20397;-72
2022/10/29 12:13:14;;;;;;;21.20;7.25;;;22.20;32.50;;;;;;5055482;28;20451;-73
2022/10/29 12:16:07;;;;;;;18.40;6.78;;;22.10;32.50;;;;;;5091553;28;20776;-73
2022/10/29 12:18:49;;;;;;;21.75;7.10;;;22.10;32.50;;;;;;5092114;28;20378;-73
2022/10/29 12:21:31;;;;;;;22.58;7.20;;;22.00;33.00;;;;;;5091756;28;20386;-73
2022/10/29 12:24:34;;;;;;;23.47;6.90;;;22.00;33.20;;;;;;5094262;28;20385;-73
2022/10/29 12:27:23;;;;;;;30.42;7.78;;;22.00;34.00;;;;;;5095803;28;20400;-72
2022/10/29 12:30:04;;;;;;;28.30;8.05;;;22.10;33.50;;;;;;5106753;28;20425;-74
2022/10/29 12:32:38;;;;;;;23.17;7.53;;;22.10;33.20;;;;;;5103840;28;20907;-75
2022/10/29 12:35:16;;;;;;;23.58;7.70;;;22.10;33.50;;;;;;5107727;28;20371;-73
2022/10/29 12:38:11;;;;;;;28.83;8.10;;;22.20;33.50;;;;;;5098720;28;20382;-72
2022/10/29 12:40:43;;;;;;;21.67;7.45;;;22.20;32.70;;;;;;5094612;28;20377;-73
2022/10/29 12:43:37;;;;;;;20.00;7.10;;;22.30;32.90;;;;;;5076638;28;20469;-72
2022/10/29 12:46:27;;;;;;;25.33;8.05;;;22.20;33.10;;;;;;5073987;28;20453;-74
2022/10/29 12:49:18;;;;;;;25.20;7.40;;;22.30;32.90;;;;;;5094845;28;20366;-72
2022/10/29 12:52:15;;;;;;;22.02;7.18;;;22.20;32.80;;;;;;5095237;28;20414;-73
2022/10/29 12:54:51;;;;;;;24.15;7.10;;;22.20;33.10;;;;;;5095160;28;20734;-72
2022/10/29 12:57:17;;;;;;;21.03;7.20;;;22.20;33.90;;;;;;5095030;28;20436;-73
2022/10/29 12:59:43;;;;;;;22.23;7.20;;;22.30;33.30;;;;;;5095385;28;20390;-73